sensor_id;sensor_type;location;lat;lon;timestamp;pressure;altitude;pressure_sealevel;temperature;humidity
76285;BME280;65096;50.998;7.098;2023-06-22T00:01:15;101104.53;;;21.68;44.59
76285;BME280;65096;50.998;7.098;2023-06-22T00:03:42;101105.50;;;21.65;44.25
76285;BME280;65096;50.998;7.098;2023-06-22T00:06:08;101099.44;;;21.63;44.46
76285;BME280;65096;50.998;7.098;2023-06-22T00:08:35;101098.53;;;21.64;44.42
76285;BME280;65096;50.998;7.098;2023-06-22T00:11:03;101106.38;;;21.66;44.51
76285;BME280;65096;50.998;7.098;2023-06-22T00:13:29;101101.22;;;21.63;44.75
76285;BME280;65096;50.998;7.098;2023-06-22T00:15:56;101102.00;;;21.65;44.47
76285;BME280;65096;50.998;7.098;2023-06-22T00:18:23;101102.81;;;21.67;44.59
76285;BME280;65096;50.998;7.098;2023-06-22T00:20:53;101112.50;;;21.65;44.26
76285;BME280;65096;50.998;7.098;2023-06-22T00:23:22;101109.81;;;21.66;44.17
76285;BME280;65096;50.998;7.098;2023-06-22T00:25:49;101109.97;;;21.62;44.32
76285;BME280;65096;50.998;7.098;2023-06-22T00:28:18;101112.75;;;21.57;44.72
76285;BME280;65096;50.998;7.098;2023-06-22T00:30:44;101114.50;;;21.57;44.36
76285;BME280;65096;50.998;7.098;2023-06-22T00:33:11;101124.22;;;21.55;44.51
76285;BME280;65096;50.998;7.098;2023-06-22T00:35:38;101105.25;;;21.47;44.61
76285;BME280;65096;50.998;7.098;2023-06-22T00:38:06;101121.59;;;21.55;45.03
76285;BME280;65096;50.998;7.098;2023-06-22T00:40:33;101120.75;;;21.54;45.00
76285;BME280;65096;50.998;7.098;2023-06-22T00:43:00;101111.06;;;21.56;44.81
76285;BME280;65096;50.998;7.098;2023-06-22T00:45:28;101119.09;;;21.50;44.24
76285;BME280;65096;50.998;7.098;2023-06-22T00:47:57;101115.69;;;21.48;44.58
76285;BME280;65096;50.998;7.098;2023-06-22T00:50:26;101101.88;;;21.42;44.95
76285;BME280;65096;50.998;7.098;2023-06-22T00:52:55;101112.09;;;21.51;44.92
76285;BME280;65096;50.998;7.098;2023-06-22T00:55:24;101118.22;;;21.51;44.43
76285;BME280;65096;50.998;7.098;2023-06-22T00:57:51;101118.28;;;21.50;44.64
76285;BME280;65096;50.998;7.098;2023-06-22T01:00:21;101116.53;;;21.49;44.46
76285;BME280;65096;50.998;7.098;2023-06-22T01:02:51;101119.06;;;21.52;44.39
76285;BME280;65096;50.998;7.098;2023-06-22T01:05:19;101113.03;;;21.50;44.63
76285;BME280;65096;50.998;7.098;2023-06-22T01:07:58;101110.41;;;21.50;44.10
76285;BME280;65096;50.998;7.098;2023-06-22T01:10:32;101112.09;;;21.51;44.20
76285;BME280;65096;50.998;7.098;2023-06-22T01:13:02;101094.09;;;21.39;44.62
76285;BME280;65096;50.998;7.098;2023-06-22T01:15:33;101107.94;;;21.44;44.12
76285;BME280;65096;50.998;7.098;2023-06-22T01:18:04;101104.34;;;21.48;44.13
76285;BME280;65096;50.998;7.098;2023-06-22T01:20:34;101087.38;;;21.30;44.50
76285;BME280;65096;50.998;7.098;2023-06-22T01:23:09;101094.69;;;21.48;44.11
76285;BME280;65096;50.998;7.098;2023-06-22T01:25:49;101102.53;;;21.50;44.17
76285;BME280;65096;50.998;7.098;2023-06-22T01:31:16;101093.19;;;21.40;44.54
76285;BME280;65096;50.998;7.098;2023-06-22T01:33:46;101087.03;;;21.41;44.58
76285;BME280;65096;50.998;7.098;2023-06-22T01:36:14;101093.19;;;21.40;44.66
76285;BME280;65096;50.998;7.098;2023-06-22T01:38:43;101082.69;;;21.40;44.96
76285;BME280;65096;50.998;7.098;2023-06-22T01:41:11;101069.78;;;21.34;44.90
76285;BME280;65096;50.998;7.098;2023-06-22T01:43:38;101066.41;;;21.30;44.40
76285;BME280;65096;50.998;7.098;2023-06-22T01:46:05;101055.03;;;21.30;45.06
76285;BME280;65096;50.998;7.098;2023-06-22T01:48:35;101063.06;;;21.25;44.78
76285;BME280;65096;50.998;7.098;2023-06-22T01:51:02;101043.22;;;21.17;44.59
76285;BME280;65096;50.998;7.098;2023-06-22T01:53:28;101056.78;;;21.31;45.05
76285;BME280;65096;50.998;7.098;2023-06-22T01:55:56;101049.94;;;21.25;45.16
76285;BME280;65096;50.998;7.098;2023-06-22T01:58:25;101054.22;;;21.28;45.23
76285;BME280;65096;50.998;7.098;2023-06-22T02:00:56;101051.63;;;21.26;45.13
76285;BME280;65096;50.998;7.098;2023-06-22T02:03:27;101049.88;;;21.27;45.42
76285;BME280;65096;50.998;7.098;2023-06-22T02:06:03;101051.78;;;21.22;45.18
76285;BME280;65096;50.998;7.098;2023-06-22T02:08:33;101057.00;;;21.23;45.45
76285;BME280;65096;50.998;7.098;2023-06-22T02:11:02;101056.16;;;21.23;45.26
76285;BME280;65096;50.998;7.098;2023-06-22T02:13:29;101056.94;;;21.25;45.30
76285;BME280;65096;50.998;7.098;2023-06-22T02:15:57;101057.81;;;21.25;45.35
76285;BME280;65096;50.998;7.098;2023-06-22T02:18:23;101052.56;;;21.25;45.12
76285;BME280;65096;50.998;7.098;2023-06-22T02:20:50;101060.38;;;21.27;45.38
76285;BME280;65096;50.998;7.098;2023-06-22T02:23:19;101043.09;;;21.20;45.70
76285;BME280;65096;50.998;7.098;2023-06-22T02:25:45;101049.03;;;21.26;45.79
76285;BME280;65096;50.998;7.098;2023-06-22T02:28:12;101055.25;;;21.24;45.82
76285;BME280;65096;50.998;7.098;2023-06-22T02:30:39;101049.13;;;21.23;45.97
76285;BME280;65096;50.998;7.098;2023-06-22T02:33:05;101050.81;;;21.26;46.00
76285;BME280;65096;50.998;7.098;2023-06-22T02:35:32;101046.34;;;21.28;45.64
76285;BME280;65096;50.998;7.098;2023-06-22T02:38:01;101037.63;;;21.27;45.76
76285;BME280;65096;50.998;7.098;2023-06-22T02:40:29;101046.31;;;21.29;45.67
76285;BME280;65096;50.998;7.098;2023-06-22T02:42:58;101029.94;;;21.23;45.80
76285;BME280;65096;50.998;7.098;2023-06-22T02:45:27;101043.78;;;21.26;45.74
76285;BME280;65096;50.998;7.098;2023-06-22T02:47:54;101035.06;;;21.26;46.23
76285;BME280;65096;50.998;7.098;2023-06-22T02:50:21;101036.72;;;21.28;46.12
76285;BME280;65096;50.998;7.098;2023-06-22T02:52:47;101031.53;;;21.27;46.18
76285;BME280;65096;50.998;7.098;2023-06-22T02:55:14;101026.22;;;21.28;45.70
76285;BME280;65096;50.998;7.098;2023-06-22T02:57:42;101036.72;;;21.28;45.81
76285;BME280;65096;50.998;7.098;2023-06-22T03:00:10;101030.66;;;21.26;45.70
76285;BME280;65096;50.998;7.098;2023-06-22T03:02:42;101022.06;;;21.23;46.30
76285;BME280;65096;50.998;7.098;2023-06-22T03:05:09;101020.28;;;21.23;46.13
76285;BME280;65096;50.998;7.098;2023-06-22T03:07:39;101020.22;;;21.25;45.89
76285;BME280;65096;50.998;7.098;2023-06-22T03:10:06;101016.72;;;21.26;45.74
76285;BME280;65096;50.998;7.098;2023-06-22T03:12:34;101019.31;;;21.26;45.80
76285;BME280;65096;50.998;7.098;2023-06-22T03:15:03;101021.03;;;21.27;45.86
76285;BME280;65096;50.998;7.098;2023-06-22T03:17:30;101014.97;;;21.25;46.13
76285;BME280;65096;50.998;7.098;2023-06-22T03:19:56;101010.59;;;21.25;46.45
76285;BME280;65096;50.998;7.098;2023-06-22T03:22:23;101015.84;;;21.25;46.40
76285;BME280;65096;50.998;7.098;2023-06-22T03:24:49;101020.22;;;21.25;46.00
76285;BME280;65096;50.998;7.098;2023-06-22T03:27:16;101027.31;;;21.23;46.23
76285;BME280;65096;50.998;7.098;2023-06-22T03:29:43;101020.31;;;21.22;46.19
76285;BME280;65096;50.998;7.098;2023-06-22T03:32:11;101013.38;;;21.21;46.33
76285;BME280;65096;50.998;7.098;2023-06-22T03:34:38;100974.88;;;20.95;46.89
76285;BME280;65096;50.998;7.098;2023-06-22T03:37:04;101013.47;;;21.18;46.87
76285;BME280;65096;50.998;7.098;2023-06-22T03:39:31;101025.66;;;21.19;47.10
76285;BME280;65096;50.998;7.098;2023-06-22T03:41:58;101017.84;;;21.17;46.79
76285;BME280;65096;50.998;7.098;2023-06-22T03:44:24;101009.22;;;21.14;47.22
76285;BME280;65096;50.998;7.098;2023-06-22T03:46:51;101006.69;;;21.11;47.04
76285;BME280;65096;50.998;7.098;2023-06-22T03:49:19;101007.63;;;21.10;47.40
76285;BME280;65096;50.998;7.098;2023-06-22T03:51:46;101008.66;;;21.04;46.95
76285;BME280;65096;50.998;7.098;2023-06-22T03:54:12;101011.19;;;21.07;47.03
76285;BME280;65096;50.998;7.098;2023-06-22T03:56:39;101015.63;;;21.05;47.43
76285;BME280;65096;50.998;7.098;2023-06-22T03:59:05;101008.81;;;21.00;47.47
76285;BME280;65096;50.998;7.098;2023-06-22T04:01:32;101006.13;;;21.01;47.62
76285;BME280;65096;50.998;7.098;2023-06-22T04:03:59;101007.22;;;20.94;48.12
76285;BME280;65096;50.998;7.098;2023-06-22T04:06:27;101011.69;;;20.92;48.41
76285;BME280;65096;50.998;7.098;2023-06-22T04:08:53;101010.03;;;20.88;48.24
76285;BME280;65096;50.998;7.098;2023-06-22T04:11:20;101003.00;;;20.90;48.38
76285;BME280;65096;50.998;7.098;2023-06-22T04:13:46;100995.94;;;20.92;47.96
76285;BME280;65096;50.998;7.098;2023-06-22T04:16:14;100998.53;;;20.94;47.86
76285;BME280;65096;50.998;7.098;2023-06-22T04:18:40;101004.53;;;20.97;48.26
76285;BME280;65096;50.998;7.098;2023-06-22T04:21:07;101013.34;;;20.95;48.30
76285;BME280;65096;50.998;7.098;2023-06-22T04:23:35;101005.78;;;20.86;49.32
76285;BME280;65096;50.998;7.098;2023-06-22T04:26:01;100996.09;;;20.88;48.61
76285;BME280;65096;50.998;7.098;2023-06-22T04:28:28;101002.09;;;20.91;49.13
76285;BME280;65096;50.998;7.098;2023-06-22T04:30:55;100994.22;;;20.91;49.17
76285;BME280;65096;50.998;7.098;2023-06-22T04:33:27;100994.38;;;20.87;50.75
76285;BME280;65096;50.998;7.098;2023-06-22T04:35:54;100998.06;;;20.81;49.88
76285;BME280;65096;50.998;7.098;2023-06-22T04:38:23;100997.28;;;20.78;50.34
76285;BME280;65096;50.998;7.098;2023-06-22T04:40:51;101003.16;;;20.86;50.22
76285;BME280;65096;50.998;7.098;2023-06-22T04:43:18;100996.09;;;20.88;49.77
76285;BME280;65096;50.998;7.098;2023-06-22T04:45:45;100988.25;;;20.88;50.19
76285;BME280;65096;50.998;7.098;2023-06-22T04:48:12;100988.03;;;20.94;49.98
76285;BME280;65096;50.998;7.098;2023-06-22T04:50:41;100994.31;;;20.88;50.25
76285;BME280;65096;50.998;7.098;2023-06-22T04:53:07;100995.38;;;20.83;50.90
76285;BME280;65096;50.998;7.098;2023-06-22T04:55:35;100996.09;;;20.88;50.58
76285;BME280;65096;50.998;7.098;2023-06-22T04:58:04;100996.75;;;20.94;50.90
76285;BME280;65096;50.998;7.098;2023-06-22T05:00:31;100994.00;;;20.99;50.70
76285;BME280;65096;50.998;7.098;2023-06-22T05:02:57;101001.72;;;21.03;50.17
76285;BME280;65096;50.998;7.098;2023-06-22T05:05:24;100999.97;;;21.02;50.24
76285;BME280;65096;50.998;7.098;2023-06-22T05:07:51;101003.47;;;21.03;50.84
76285;BME280;65096;50.998;7.098;2023-06-22T05:10:20;100994.78;;;21.01;50.92
76285;BME280;65096;50.998;7.098;2023-06-22T05:12:46;100996.38;;;21.06;51.32
76285;BME280;65096;50.998;7.098;2023-06-22T05:15:14;100991.03;;;21.09;51.66
76285;BME280;65096;50.998;7.098;2023-06-22T05:17:41;100998.84;;;21.11;51.63
76285;BME280;65096;50.998;7.098;2023-06-22T05:20:09;100983.00;;;21.14;51.38
76285;BME280;65096;50.998;7.098;2023-06-22T05:22:36;100993.38;;;21.17;51.70
76285;BME280;65096;50.998;7.098;2023-06-22T05:25:04;100996.81;;;21.19;51.84
76285;BME280;65096;50.998;7.098;2023-06-22T05:27:31;100988.25;;;21.14;51.71
76285;BME280;65096;50.998;7.098;2023-06-22T05:29:58;101004.69;;;21.19;52.07
76285;BME280;65096;50.998;7.098;2023-06-22T05:32:26;101000.31;;;21.19;51.86
76285;BME280;65096;50.998;7.098;2023-06-22T05:34:54;100991.63;;;21.17;51.94
76285;BME280;65096;50.998;7.098;2023-06-22T05:37:21;100992.50;;;21.18;52.23
76285;BME280;65096;50.998;7.098;2023-06-22T05:39:47;100995.00;;;21.21;52.30
76285;BME280;65096;50.998;7.098;2023-06-22T05:42:14;101004.47;;;21.25;52.22
76285;BME280;65096;50.998;7.098;2023-06-22T05:44:41;100999.19;;;21.26;52.43
76285;BME280;65096;50.998;7.098;2023-06-22T05:47:07;101005.13;;;21.31;52.38
76285;BME280;65096;50.998;7.098;2023-06-22T05:49:35;100998.09;;;21.33;53.21
76285;BME280;65096;50.998;7.098;2023-06-22T05:52:02;101011.16;;;21.35;52.61
76285;BME280;65096;50.998;7.098;2023-06-22T05:54:29;101008.38;;;21.39;52.62
76285;BME280;65096;50.998;7.098;2023-06-22T05:56:56;101017.09;;;21.40;52.49
76285;BME280;65096;50.998;7.098;2023-06-22T05:59:22;101016.28;;;21.38;52.56
76285;BME280;65096;50.998;7.098;2023-06-22T06:01:49;101013.06;;;21.30;52.96
76285;BME280;65096;50.998;7.098;2023-06-22T06:04:16;101017.41;;;21.31;53.05
76285;BME280;65096;50.998;7.098;2023-06-22T06:06:45;101025.97;;;21.36;53.39
76285;BME280;65096;50.998;7.098;2023-06-22T06:09:12;101022.13;;;21.47;52.70
76285;BME280;65096;50.998;7.098;2023-06-22T06:11:39;101021.28;;;21.47;52.94
76285;BME280;65096;50.998;7.098;2023-06-22T06:14:06;101030.69;;;21.52;52.55
76285;BME280;65096;50.998;7.098;2023-06-22T06:16:33;101020.00;;;21.58;53.24
76285;BME280;65096;50.998;7.098;2023-06-22T06:18:59;101017.91;;;21.68;52.74
76285;BME280;65096;50.998;7.098;2023-06-22T06:21:26;101013.28;;;21.74;52.89
76285;BME280;65096;50.998;7.098;2023-06-22T06:23:54;101014.75;;;21.83;53.04
76285;BME280;65096;50.998;7.098;2023-06-22T06:26:20;101015.47;;;21.88;52.32
76285;BME280;65096;50.998;7.098;2023-06-22T06:28:55;101017.03;;;21.92;52.42
76285;BME280;65096;50.998;7.098;2023-06-22T06:31:22;101021.72;;;21.84;52.35
76285;BME280;65096;50.998;7.098;2023-06-22T06:33:49;101018.94;;;21.89;52.78
76285;BME280;65096;50.998;7.098;2023-06-22T06:36:16;101020.59;;;21.91;51.95
76285;BME280;65096;50.998;7.098;2023-06-22T06:38:42;101016.28;;;21.90;51.99
76285;BME280;65096;50.998;7.098;2023-06-22T06:41:10;101021.88;;;22.04;52.50
76285;BME280;65096;50.998;7.098;2023-06-22T06:43:37;101020.16;;;22.03;52.58
76285;BME280;65096;50.998;7.098;2023-06-22T06:46:04;101017.19;;;22.14;51.63
76285;BME280;65096;50.998;7.098;2023-06-22T06:48:30;101016.66;;;22.27;51.08
76285;BME280;65096;50.998;7.098;2023-06-22T06:50:57;101027.50;;;22.18;51.54
76285;BME280;65096;50.998;7.098;2023-06-22T06:53:24;101021.78;;;22.32;51.44
76285;BME280;65096;50.998;7.098;2023-06-22T06:55:50;101010.47;;;22.51;51.69
76285;BME280;65096;50.998;7.098;2023-06-22T06:58:18;101010.72;;;22.68;51.01
76285;BME280;65096;50.998;7.098;2023-06-22T07:00:45;101005.75;;;22.84;51.33
76285;BME280;65096;50.998;7.098;2023-06-22T07:03:12;101000.91;;;22.95;50.61
76285;BME280;65096;50.998;7.098;2023-06-22T07:05:39;100991.59;;;22.86;50.40
76285;BME280;65096;50.998;7.098;2023-06-22T07:08:05;100997.09;;;22.80;50.52
76285;BME280;65096;50.998;7.098;2023-06-22T07:10:32;100993.31;;;22.87;50.31
76285;BME280;65096;50.998;7.098;2023-06-22T07:12:58;100989.41;;;22.97;50.61
76285;BME280;65096;50.998;7.098;2023-06-22T07:15:27;100988.31;;;23.03;49.92
76285;BME280;65096;50.998;7.098;2023-06-22T07:17:53;100975.69;;;23.11;49.61
76285;BME280;65096;50.998;7.098;2023-06-22T07:20:20;100969.88;;;23.25;49.33
76285;BME280;65096;50.998;7.098;2023-06-22T07:22:46;100969.25;;;23.40;49.15
76285;BME280;65096;50.998;7.098;2023-06-22T07:25:13;100966.69;;;23.58;49.81
76285;BME280;65096;50.998;7.098;2023-06-22T07:27:44;100964.31;;;23.72;49.89
76285;BME280;65096;50.998;7.098;2023-06-22T07:30:12;100973.31;;;23.87;49.80
76285;BME280;65096;50.998;7.098;2023-06-22T07:32:40;100968.19;;;23.84;48.99
76285;BME280;65096;50.998;7.098;2023-06-22T07:35:08;100972.59;;;23.83;48.70
76285;BME280;65096;50.998;7.098;2023-06-22T07:37:34;100972.09;;;23.94;48.94
76285;BME280;65096;50.998;7.098;2023-06-22T07:40:01;100970.19;;;23.97;48.41
76285;BME280;65096;50.998;7.098;2023-06-22T07:42:31;100966.34;;;24.06;48.25
76285;BME280;65096;50.998;7.098;2023-06-22T07:44:59;100935.50;;;23.88;48.44
76285;BME280;65096;50.998;7.098;2023-06-22T07:47:26;100949.94;;;23.99;48.79
76285;BME280;65096;50.998;7.098;2023-06-22T07:49:55;100942.63;;;24.06;48.35
76285;BME280;65096;50.998;7.098;2023-06-22T07:52:23;100940.41;;;23.95;48.93
76285;BME280;65096;50.998;7.098;2023-06-22T07:54:50;100938.72;;;23.94;49.07
76285;BME280;65096;50.998;7.098;2023-06-22T07:57:17;100938.06;;;24.09;48.75
76285;BME280;65096;50.998;7.098;2023-06-22T07:59:44;100934.06;;;24.19;48.20
76285;BME280;65096;50.998;7.098;2023-06-22T08:02:10;100897.63;;;24.10;48.52
76285;BME280;65096;50.998;7.098;2023-06-22T08:04:37;100909.91;;;24.47;48.25
76285;BME280;65096;50.998;7.098;2023-06-22T08:07:05;100912.75;;;24.61;47.96
76285;BME280;65096;50.998;7.098;2023-06-22T08:09:32;100920.25;;;24.70;47.95
76285;BME280;65096;50.998;7.098;2023-06-22T08:11:59;100907.75;;;24.74;47.91
76285;BME280;65096;50.998;7.098;2023-06-22T08:14:26;100914.69;;;24.93;47.62
76285;BME280;65096;50.998;7.098;2023-06-22T08:16:53;100906.31;;;25.02;47.37
76285;BME280;65096;50.998;7.098;2023-06-22T08:19:20;100911.28;;;25.08;47.30
76285;BME280;65096;50.998;7.098;2023-06-22T08:21:46;100905.13;;;25.26;46.89
76285;BME280;65096;50.998;7.098;2023-06-22T08:24:14;100899.19;;;25.38;46.28
76285;BME280;65096;50.998;7.098;2023-06-22T08:26:41;100892.75;;;25.44;46.06
76285;BME280;65096;50.998;7.098;2023-06-22T08:29:08;100889.97;;;25.62;46.42
76285;BME280;65096;50.998;7.098;2023-06-22T08:31:36;100878.03;;;25.88;46.14
76285;BME280;65096;50.998;7.098;2023-06-22T08:34:02;100887.78;;;26.03;44.04
76285;BME280;65096;50.998;7.098;2023-06-22T08:36:29;100884.13;;;26.06;45.06
76285;BME280;65096;50.998;7.098;2023-06-22T08:38:58;100869.19;;;26.20;44.59
76285;BME280;65096;50.998;7.098;2023-06-22T08:41:28;100871.09;;;26.34;44.81
76285;BME280;65096;50.998;7.098;2023-06-22T08:43:54;100863.44;;;26.45;43.88
76285;BME280;65096;50.998;7.098;2023-06-22T08:46:21;100856.59;;;26.41;43.96
76285;BME280;65096;50.998;7.098;2023-06-22T08:48:55;100866.81;;;26.47;44.44
76285;BME280;65096;50.998;7.098;2023-06-22T08:51:22;100856.78;;;26.83;42.64
76285;BME280;65096;50.998;7.098;2023-06-22T08:53:48;100855.31;;;26.77;43.44
76285;BME280;65096;50.998;7.098;2023-06-22T08:56:15;100859.94;;;26.74;42.46
76285;BME280;65096;50.998;7.098;2023-06-22T08:58:43;100849.84;;;26.80;42.45
76285;BME280;65096;50.998;7.098;2023-06-22T09:01:09;100850.28;;;26.88;43.51
76285;BME280;65096;50.998;7.098;2023-06-22T09:03:36;100839.44;;;26.93;43.08
76285;BME280;65096;50.998;7.098;2023-06-22T09:06:03;100840.09;;;26.96;42.41
76285;BME280;65096;50.998;7.098;2023-06-22T09:08:30;100844.34;;;26.69;42.56
76285;BME280;65096;50.998;7.098;2023-06-22T09:10:56;100842.91;;;26.64;42.75
76285;BME280;65096;50.998;7.098;2023-06-22T09:13:23;100828.91;;;26.62;42.77
76285;BME280;65096;50.998;7.098;2023-06-22T09:15:51;100820.81;;;26.79;42.41
76285;BME280;65096;50.998;7.098;2023-06-22T09:18:18;100821.06;;;26.90;41.78
76285;BME280;65096;50.998;7.098;2023-06-22T09:20:45;100813.63;;;26.96;41.84
76285;BME280;65096;50.998;7.098;2023-06-22T09:23:12;100804.69;;;27.13;41.70
76285;BME280;65096;50.998;7.098;2023-06-22T09:25:39;100808.00;;;27.17;41.40
76285;BME280;65096;50.998;7.098;2023-06-22T09:28:06;100808.97;;;27.30;41.92
76285;BME280;65096;50.998;7.098;2023-06-22T09:30:33;100811.56;;;27.15;41.28
76285;BME280;65096;50.998;7.098;2023-06-22T09:33:00;100797.84;;;27.09;40.99
76285;BME280;65096;50.998;7.098;2023-06-22T09:35:27;100792.41;;;27.12;42.19
76285;BME280;65096;50.998;7.098;2023-06-22T09:37:54;100790.47;;;27.14;41.01
76285;BME280;65096;50.998;7.098;2023-06-22T09:40:20;100790.59;;;27.27;41.29
76285;BME280;65096;50.998;7.098;2023-06-22T09:42:47;100778.69;;;27.34;41.11
76285;BME280;65096;50.998;7.098;2023-06-22T09:45:14;100768.75;;;27.37;41.44
76285;BME280;65096;50.998;7.098;2023-06-22T09:47:40;100763.94;;;27.58;41.34
76285;BME280;65096;50.998;7.098;2023-06-22T09:50:09;100757.56;;;27.60;40.93
76285;BME280;65096;50.998;7.098;2023-06-22T09:52:36;100774.59;;;27.70;40.52
76285;BME280;65096;50.998;7.098;2023-06-22T09:55:03;100774.97;;;27.78;40.74
76285;BME280;65096;50.998;7.098;2023-06-22T09:57:30;100780.34;;;27.77;40.33
76285;BME280;65096;50.998;7.098;2023-06-22T09:59:57;100775.59;;;27.55;39.72
76285;BME280;65096;50.998;7.098;2023-06-22T10:02:23;100774.81;;;27.53;40.23
76285;BME280;65096;50.998;7.098;2023-06-22T10:04:50;100768.66;;;27.53;40.55
76285;BME280;65096;50.998;7.098;2023-06-22T10:07:18;100771.88;;;27.58;40.32
76285;BME280;65096;50.998;7.098;2023-06-22T10:09:44;100771.38;;;27.65;40.03
76285;BME280;65096;50.998;7.098;2023-06-22T10:12:11;100785.41;;;27.53;40.12
76285;BME280;65096;50.998;7.098;2023-06-22T10:14:38;100777.44;;;27.25;40.73
76285;BME280;65096;50.998;7.098;2023-06-22T10:17:05;100782.44;;;27.01;40.86
76285;BME280;65096;50.998;7.098;2023-06-22T10:19:32;100787.59;;;27.19;41.20
76285;BME280;65096;50.998;7.098;2023-06-22T10:22:02;100794.81;;;27.01;41.54
76285;BME280;65096;50.998;7.098;2023-06-22T10:24:30;100804.56;;;27.00;41.40
76285;BME280;65096;50.998;7.098;2023-06-22T10:26:56;100816.00;;;27.01;41.74
76285;BME280;65096;50.998;7.098;2023-06-22T10:29:23;100818.38;;;27.05;41.44
76285;BME280;65096;50.998;7.098;2023-06-22T10:31:50;100829.28;;;27.15;41.51
76285;BME280;65096;50.998;7.098;2023-06-22T10:34:16;100835.06;;;27.22;41.46
76285;BME280;65096;50.998;7.098;2023-06-22T10:36:43;100843.63;;;27.11;42.55
76285;BME280;65096;50.998;7.098;2023-06-22T10:39:12;100849.97;;;27.08;43.04
76285;BME280;65096;50.998;7.098;2023-06-22T10:41:40;100854.69;;;27.03;44.18
76285;BME280;65096;50.998;7.098;2023-06-22T10:44:07;100867.50;;;26.95;45.14
76285;BME280;65096;50.998;7.098;2023-06-22T10:46:33;100870.72;;;26.86;45.86
76285;BME280;65096;50.998;7.098;2023-06-22T10:49:00;100879.81;;;26.81;47.13
76285;BME280;65096;50.998;7.098;2023-06-22T10:51:27;100876.59;;;26.76;48.71
76285;BME280;65096;50.998;7.098;2023-06-22T10:53:54;100884.09;;;26.68;48.61
76285;BME280;65096;50.998;7.098;2023-06-22T10:56:20;100882.91;;;26.58;49.88
76285;BME280;65096;50.998;7.098;2023-06-22T10:58:48;100871.78;;;26.53;49.72
76285;BME280;65096;50.998;7.098;2023-06-22T11:01:15;100872.28;;;26.44;49.99
76285;BME280;65096;50.998;7.098;2023-06-22T11:03:42;100874.41;;;26.37;50.16
76285;BME280;65096;50.998;7.098;2023-06-22T11:06:08;100883.72;;;26.29;50.70
76285;BME280;65096;50.998;7.098;2023-06-22T11:08:35;100889.41;;;26.21;51.06
76285;BME280;65096;50.998;7.098;2023-06-22T11:11:01;100904.16;;;26.10;51.40
76285;BME280;65096;50.998;7.098;2023-06-22T11:13:28;100916.00;;;26.03;51.89
76285;BME280;65096;50.998;7.098;2023-06-22T11:15:56;100930.56;;;25.94;52.08
76285;BME280;65096;50.998;7.098;2023-06-22T11:18:23;100935.66;;;25.82;51.75
76285;BME280;65096;50.998;7.098;2023-06-22T11:20:49;100928.97;;;25.74;52.17
76285;BME280;65096;50.998;7.098;2023-06-22T11:23:16;100903.88;;;25.66;52.47
76285;BME280;65096;50.998;7.098;2023-06-22T11:25:43;100877.63;;;25.63;52.71
76285;BME280;65096;50.998;7.098;2023-06-22T11:28:09;100858.69;;;25.55;53.13
76285;BME280;65096;50.998;7.098;2023-06-22T11:30:36;100857.31;;;25.48;52.73
76285;BME280;65096;50.998;7.098;2023-06-22T11:33:04;100830.53;;;25.38;54.08
76285;BME280;65096;50.998;7.098;2023-06-22T11:35:30;100818.38;;;25.19;55.09
76285;BME280;65096;50.998;7.098;2023-06-22T11:37:57;100819.69;;;25.10;55.02
76285;BME280;65096;50.998;7.098;2023-06-22T11:40:23;100818.13;;;25.06;55.40
76285;BME280;65096;50.998;7.098;2023-06-22T11:42:50;100799.91;;;25.02;55.12
76285;BME280;65096;50.998;7.098;2023-06-22T11:45:17;100772.78;;;24.83;56.14
76285;BME280;65096;50.998;7.098;2023-06-22T11:47:45;100755.22;;;24.82;56.44
76285;BME280;65096;50.998;7.098;2023-06-22T11:50:13;100753.94;;;24.73;56.37
76285;BME280;65096;50.998;7.098;2023-06-22T11:52:40;100710.78;;;24.74;56.28
76285;BME280;65096;50.998;7.098;2023-06-22T11:55:07;100734.38;;;24.77;56.64
76285;BME280;65096;50.998;7.098;2023-06-22T11:57:35;100729.16;;;24.76;56.46
76285;BME280;65096;50.998;7.098;2023-06-22T12:00:03;100718.78;;;24.73;57.14
76285;BME280;65096;50.998;7.098;2023-06-22T12:02:36;100731.56;;;24.80;56.70
76285;BME280;65096;50.998;7.098;2023-06-22T12:05:03;100744.13;;;24.92;57.53
76285;BME280;65096;50.998;7.098;2023-06-22T12:07:31;100754.09;;;25.03;57.62
76285;BME280;65096;50.998;7.098;2023-06-22T12:09:58;100733.31;;;24.97;57.43
76285;BME280;65096;50.998;7.098;2023-06-22T12:12:24;100753.00;;;24.74;58.18
76285;BME280;65096;50.998;7.098;2023-06-22T12:14:51;100749.84;;;25.00;58.84
76285;BME280;65096;50.998;7.098;2023-06-22T12:17:17;100748.13;;;25.16;59.45
76285;BME280;65096;50.998;7.098;2023-06-22T12:19:44;100735.91;;;25.14;57.26
76285;BME280;65096;50.998;7.098;2023-06-22T12:22:11;100733.19;;;25.15;57.64
76285;BME280;65096;50.998;7.098;2023-06-22T12:24:39;100726.22;;;25.14;57.07
76285;BME280;65096;50.998;7.098;2023-06-22T12:27:05;100712.94;;;25.16;57.34
76285;BME280;65096;50.998;7.098;2023-06-22T12:29:32;100707.38;;;25.05;56.99
76285;BME280;65096;50.998;7.098;2023-06-22T12:31:59;100703.38;;;24.98;56.81
76285;BME280;65096;50.998;7.098;2023-06-22T12:34:25;100716.41;;;25.01;56.79
76285;BME280;65096;50.998;7.098;2023-06-22T12:36:52;100713.63;;;25.04;56.92
76285;BME280;65096;50.998;7.098;2023-06-22T12:39:19;100694.88;;;25.08;57.03
76285;BME280;65096;50.998;7.098;2023-06-22T12:41:47;100688.66;;;25.09;57.10
76285;BME280;65096;50.998;7.098;2023-06-22T12:44:14;100678.28;;;25.06;57.68
76285;BME280;65096;50.998;7.098;2023-06-22T12:46:41;100670.56;;;25.19;58.26
76285;BME280;65096;50.998;7.098;2023-06-22T12:49:07;100672.72;;;25.28;58.05
76285;BME280;65096;50.998;7.098;2023-06-22T12:51:39;100664.38;;;25.35;58.85
76285;BME280;65096;50.998;7.098;2023-06-22T12:54:07;100646.41;;;25.42;57.71